YBWW Airport Information

Runway Information
Airport Frequencies
Airport Navaids
Airport Weather Information & NOTAM
ADDS - METARS form results

(0710 UTC 03 December 2021)
Data provider http://aviationweather.gov/metar/data/
 
METAR text: YBWW 030700Z AUTO 11009KT 9999 // SCT081 28/19 Q1013 RF00.0/000.0
Conditions at: YBWW (TOOWOOMBA , AU) observed 0700 UTC 03 December 2021
Temperature: 28.0°C (82°F)
Dewpoint: 19.0°C (66°F) [RH = 58%]
Pressure (altimeter): 29.91 inches Hg (1013.0 mb)
Winds: from the ESE (110 degrees) at 10 MPH (9 knots; 4.6 m/s)
Visibility: 6 or more miles (10+ km)
Ceiling: at least 12,000 feet AGL
Clouds: scattered clouds at 8100 feet AGL
Weather: no significant weather observed at this time

METAR text: YBWW 030630Z AUTO 11009KT 9999 // BKN073 30/17 Q1012 RF00.0/000.0
Conditions at: YBWW (TOOWOOMBA , AU) observed 0630 UTC 03 December 2021
Temperature: 30.0°C (86°F)
Dewpoint: 17.0°C (63°F) [RH = 46%]
Pressure (altimeter): 29.88 inches Hg (1012.0 mb)
Winds: from the ESE (110 degrees) at 10 MPH (9 knots; 4.6 m/s)
Visibility: 6 or more miles (10+ km)
Ceiling: 7300 feet AGL
Clouds: broken clouds at 7300 feet AGL
Weather: no significant weather observed at this time

Forecast for: YBWW (TOOWOOMBA , AU)
Text: TAF YBWW 030504Z 0306/0406 15008KT CAVOK
Forecast period: 0600 to 0700 UTC 03 December 2021
Forecast type: FROM: standard forecast or significant change
Winds: from the SSE (150 degrees) at 9 MPH (8 knots; 4.1 m/s)
Visibility: 6 or more miles (10+ km)
Ceiling: unknown
Clouds: missing
Weather: NSW  (no significant weather)
Text: FM030700 09012KT CAVOK
Forecast period: 0700 to 1200 UTC 03 December 2021
Forecast type: FROM: standard forecast or significant change
Winds: from the E (90 degrees) at 14 MPH (12 knots; 6.2 m/s)
Visibility: 6 or more miles (10+ km)
Ceiling: unknown
Clouds: missing
Weather: NSW  (no significant weather)
Text: FM031200 09008KT 9999 SCT010
Forecast period: 1200 to 2300 UTC 03 December 2021
Forecast type: FROM: standard forecast or significant change
Winds: from the E (90 degrees) at 9 MPH (8 knots; 4.1 m/s)
Visibility: 6 or more miles (10+ km)
Ceiling: at least 12,000 feet AGL
Clouds: scattered clouds at 1000 feet AGL
Weather: no significant weather forecast for this period
Text: FM032300 VRB04KT CAVOK
Forecast period: 2300 UTC 03 December 2021 to 0300 UTC 04 December 2021
Forecast type: FROM: standard forecast or significant change
Winds: variable direction winds at 5 MPH (4 knots; 2.1 m/s)
Visibility: 6 or more miles (10+ km)
Ceiling: unknown
Clouds: missing
Weather: NSW  (no significant weather)
Text: FM040300 24006KT CAVOK
Forecast period: 0300 to 0600 UTC 04 December 2021
Forecast type: FROM: standard forecast or significant change
Winds: from the WSW (240 degrees) at 7 MPH (6 knots; 3.1 m/s)
Visibility: 6 or more miles (10+ km)
Ceiling: unknown
Clouds: missing
Weather: NSW  (no significant weather)